Time;durP1;ratioP1;P1;durP2;ratioP2;P2;SDS_P1;SDS_P2;PMS_P1;PMS_P2;Temp;Humidity;BMP_temperature;BMP_pressure;BME280_temperature;BME280_humidity;BME280_pressure;Samples;Min_cycle;Max_cycle;Signal;HPM_P1;HPM_P2
2023/01/12 00:02:02;;;;;;;9.30;7.65;;;9.20;99.90;;;;;;5035359;28;20255;-78
2023/01/12 00:04:32;;;;;;;8.55;7.60;;;9.20;99.90;;;;;;5033453;28;20217;-80
2023/01/12 00:07:05;;;;;;;8.35;7.32;;;9.20;99.90;;;;;;5032040;28;20244;-79
2023/01/12 00:09:33;;;;;;;8.20;6.50;;;9.20;99.90;;;;;;5033774;28;20324;-79
2023/01/12 00:12:00;;;;;;;11.32;7.43;;;9.20;99.90;;;;;;5032921;28;20312;-80
2023/01/12 00:14:30;;;;;;;6.47;5.70;;;9.10;99.90;;;;;;5035332;28;20311;-80
2023/01/12 00:16:57;;;;;;;12.70;6.40;;;9.10;99.90;;;;;;5035075;28;20618;-80
2023/01/12 00:19:24;;;;;;;10.50;7.43;;;9.10;99.90;;;;;;5035966;28;20229;-80
2023/01/12 00:21:58;;;;;;;16.17;8.50;;;9.10;99.90;;;;;;5029441;28;20569;-78
2023/01/12 00:24:28;;;;;;;11.25;6.00;;;9.00;99.90;;;;;;5034959;28;20671;-80
2023/01/12 00:27:01;;;;;;;15.15;8.40;;;8.90;99.90;;;;;;5035356;28;20225;-81
2023/01/12 00:29:31;;;;;;;9.18;5.90;;;8.80;99.90;;;;;;5033668;28;20313;-79
2023/01/12 00:32:00;;;;;;;9.00;5.70;;;8.80;99.90;;;;;;5032342;28;20727;-80
2023/01/12 00:34:27;;;;;;;6.78;6.07;;;8.80;99.90;;;;;;5034376;28;20244;-79
2023/01/12 00:36:55;;;;;;;12.52;6.15;;;8.70;99.90;;;;;;5022401;28;20221;-79
2023/01/12 00:39:28;;;;;;;11.10;4.80;;;8.80;99.90;;;;;;5023508;28;20229;-78
2023/01/12 00:47:28;;;;;;;11.85;5.20;;;8.80;99.90;;;;;;5024183;28;20566;-80
2023/01/12 00:49:55;;;;;;;7.55;5.15;;;8.80;99.90;;;;;;5034676;28;20221;-78
2023/01/12 00:52:23;;;;;;;17.77;5.82;;;8.80;99.90;;;;;;5035346;28;20249;-79
2023/01/12 00:54:52;;;;;;;8.90;5.15;;;8.70;99.90;;;;;;5024270;28;20308;-79
2023/01/12 00:57:22;;;;;;;6.05;5.45;;;8.70;99.90;;;;;;5032125;28;20225;-78
2023/01/12 00:59:53;;;;;;;10.52;5.63;;;8.70;99.90;;;;;;5032252;28;20222;-78
2023/01/12 01:02:21;;;;;;;8.02;4.55;;;8.70;99.90;;;;;;5032824;28;20318;-78
2023/01/12 01:04:51;;;;;;;10.98;5.78;;;8.70;99.90;;;;;;5024639;28;20229;-78
2023/01/12 01:07:20;;;;;;;13.02;5.68;;;8.70;99.90;;;;;;5034607;28;20541;-78
2023/01/12 01:09:47;;;;;;;8.68;4.78;;;8.80;99.90;;;;;;5024697;28;20252;-78
2023/01/12 01:12:14;;;;;;;11.30;5.03;;;8.70;99.90;;;;;;5020499;28;20221;-80
2023/01/12 01:14:41;;;;;;;6.35;4.53;;;8.70;99.90;;;;;;5029817;28;20294;-79
2023/01/12 01:17:10;;;;;;;9.45;5.20;;;8.80;99.90;;;;;;5026484;28;20229;-79
2023/01/12 01:19:39;;;;;;;7.18;4.22;;;8.70;99.90;;;;;;5032998;28;20229;-80
2023/01/12 01:22:06;;;;;;;6.32;3.65;;;8.70;99.90;;;;;;5032103;28;20218;-80
2023/01/12 01:24:40;;;;;;;8.05;3.95;;;8.70;99.90;;;;;;5033916;28;20675;-80
2023/01/12 01:27:23;;;;;;;8.57;3.60;;;8.70;99.90;;;;;;5033340;28;20224;-80
2023/01/12 01:29:50;;;;;;;6.53;3.05;;;8.70;99.90;;;;;;5024842;28;20579;-80
2023/01/12 01:32:18;;;;;;;8.80;4.28;;;8.70;99.90;;;;;;5018615;28;20621;-79
2023/01/12 01:34:46;;;;;;;8.55;4.00;;;8.60;99.90;;;;;;5034016;28;20236;-79
2023/01/12 01:37:17;;;;;;;6.80;3.10;;;8.60;99.90;;;;;;5023617;28;20568;-80
2023/01/12 01:39:44;;;;;;;6.05;3.60;;;8.60;99.90;;;;;;5032104;28;20298;-82
2023/01/12 01:42:27;;;;;;;7.93;3.75;;;8.60;99.90;;;;;;5021464;28;20213;-79
2023/01/12 01:44:59;;;;;;;7.30;3.20;;;8.60;99.90;;;;;;5011558;28;20241;-80
2023/01/12 01:47:36;;;;;;;5.95;2.97;;;8.60;99.90;;;;;;5029318;28;20327;-79
2023/01/12 01:50:07;;;;;;;12.95;7.20;;;8.70;99.90;;;;;;5019194;28;20237;-79
2023/01/12 01:52:54;;;;;;;10.82;4.65;;;8.70;99.90;;;;;;5031254;28;20666;-79
2023/01/12 01:55:24;;;;;;;6.55;3.42;;;8.70;99.90;;;;;;5031778;28;20249;-78
2023/01/12 01:57:57;;;;;;;8.40;4.65;;;8.70;99.90;;;;;;5019763;28;20549;-78
2023/01/12 02:00:25;;;;;;;6.88;2.70;;;8.70;99.90;;;;;;5032693;28;20229;-78
2023/01/12 02:02:58;;;;;;;9.57;2.90;;;8.70;99.90;;;;;;5034712;28;20249;-79
2023/01/12 02:05:28;;;;;;;8.48;4.00;;;8.60;99.90;;;;;;5022794;28;20312;-80
2023/01/12 02:07:58;;;;;;;12.05;4.32;;;8.70;99.90;;;;;;5034823;28;20609;-79
2023/01/12 02:10:26;;;;;;;6.50;2.55;;;8.70;99.90;;;;;;5024648;28;20237;-81
2023/01/12 02:18:37;;;;;;;5.20;2.60;;;8.80;99.90;;;;;;5033085;28;20245;-78
2023/01/12 02:21:21;;;;;;;12.90;3.55;;;8.80;99.90;;;;;;5034096;28;20647;-78
2023/01/12 02:24:20;;;;;;;14.65;2.83;;;8.80;99.90;;;;;;5023312;28;20229;-78
2023/01/12 02:27:20;;;;;;;7.18;2.30;;;8.80;99.90;;;;;;4973915;28;20229;-79
2023/01/12 02:30:27;;;;;;;8.00;2.25;;;8.70;99.90;;;;;;5031815;28;20279;-78
2023/01/12 02:33:10;;;;;;;8.40;2.90;;;8.80;99.90;;;;;;5033898;28;20300;-79
2023/01/12 02:35:44;;;;;;;10.32;2.78;;;8.80;99.90;;;;;;5021165;28;20225;-79
2023/01/12 02:38:22;;;;;;;8.88;3.03;;;8.80;99.90;;;;;;5035475;28;20255;-79
2023/01/12 02:40:58;;;;;;;5.25;2.40;;;8.80;99.90;;;;;;5024276;28;20233;-79
2023/01/12 02:43:28;;;;;;;10.23;2.58;;;8.80;99.90;;;;;;5035185;28;20647;-82
2023/01/12 02:46:02;;;;;;;6.13;1.77;;;8.80;99.90;;;;;;5027116;28;20284;-81
2023/01/12 02:48:38;;;;;;;7.30;3.75;;;8.80;99.90;;;;;;5034660;28;20261;-79
2023/01/12 02:51:16;;;;;;;11.75;3.10;;;8.80;99.90;;;;;;5023865;28;20243;-80
2023/01/12 02:53:55;;;;;;;7.82;2.80;;;8.80;99.90;;;;;;5036559;28;20256;-79
2023/01/12 02:56:26;;;;;;;5.97;3.30;;;8.80;99.90;;;;;;5035465;28;20228;-79
2023/01/12 02:59:04;;;;;;;5.28;3.10;;;8.80;99.90;;;;;;5033558;28;20324;-80
2023/01/12 03:01:32;;;;;;;3.22;2.17;;;8.80;99.90;;;;;;5035710;28;20221;-79
2023/01/12 03:04:04;;;;;;;9.82;2.30;;;8.80;99.90;;;;;;5025075;28;20217;-79
2023/01/12 03:06:41;;;;;;;3.63;1.83;;;8.80;99.90;;;;;;5034252;28;20300;-79
2023/01/12 03:09:10;;;;;;;8.70;3.10;;;8.80;99.90;;;;;;5033716;28;20802;-81
2023/01/12 03:11:46;;;;;;;6.65;2.15;;;8.70;99.90;;;;;;5034471;28;20599;-80
2023/01/12 03:14:17;;;;;;;7.32;3.10;;;8.70;99.90;;;;;;5037238;28;20232;-78
2023/01/12 03:16:44;;;;;;;5.60;2.15;;;8.70;99.90;;;;;;5032243;28;20261;-78
2023/01/12 03:19:18;;;;;;;5.13;2.70;;;8.70;99.90;;;;;;5014462;28;20225;-78
2023/01/12 03:21:50;;;;;;;3.53;2.00;;;8.80;99.90;;;;;;5032491;28;20221;-79
2023/01/12 03:24:22;;;;;;;6.35;3.42;;;8.80;99.90;;;;;;5039113;28;20225;-79
2023/01/12 03:26:54;;;;;;;6.65;2.70;;;8.80;99.90;;;;;;5040163;28;20283;-79
2023/01/12 03:29:28;;;;;;;4.90;2.30;;;8.80;99.90;;;;;;5043131;28;20588;-80
2023/01/12 03:31:58;;;;;;;6.22;2.47;;;8.80;99.90;;;;;;5047264;28;20229;-80
2023/01/12 03:34:29;;;;;;;4.65;2.58;;;8.80;99.90;;;;;;5041066;28;20276;-79
2023/01/12 03:37:04;;;;;;;10.75;3.42;;;8.80;99.90;;;;;;5040417;28;20236;-80
2023/01/12 03:39:42;;;;;;;9.27;3.45;;;8.80;99.90;;;;;;5040308;28;20662;-80
2023/01/12 03:42:18;;;;;;;10.02;4.45;;;8.70;99.90;;;;;;5050137;28;20232;-78
2023/01/12 03:45:01;;;;;;;4.57;2.00;;;8.70;99.90;;;;;;5048315;28;20293;-80
2023/01/12 03:47:36;;;;;;;10.68;4.85;;;8.70;99.90;;;;;;5045053;28;20210;-79
2023/01/12 03:50:09;;;;;;;4.25;1.92;;;8.70;99.90;;;;;;5049526;28;20248;-79
2023/01/12 03:52:40;;;;;;;4.88;2.70;;;8.70;99.90;;;;;;5050455;28;20221;-80
2023/01/12 03:55:22;;;;;;;8.65;3.35;;;8.80;99.90;;;;;;5050510;28;20532;-81
2023/01/12 03:57:50;;;;;;;7.20;3.35;;;8.80;99.90;;;;;;5048915;28;20226;-80
2023/01/12 04:00:28;;;;;;;6.05;2.55;;;8.80;99.90;;;;;;5031158;28;20226;-79
2023/01/12 04:03:12;;;;;;;2.97;2.20;;;8.90;99.90;;;;;;5042860;28;20275;-81
2023/01/12 04:05:41;;;;;;;3.72;2.25;;;8.90;99.90;;;;;;5027779;28;20217;-78
2023/01/12 04:08:16;;;;;;;7.32;2.83;;;8.90;99.90;;;;;;5024797;28;20502;-77
2023/01/12 04:10:43;;;;;;;5.82;2.08;;;8.90;99.90;;;;;;5023474;28;20233;-79
2023/01/12 04:13:10;;;;;;;3.55;1.65;;;9.00;99.90;;;;;;5032872;28;20221;-79
2023/01/12 04:15:41;;;;;;;4.50;1.75;;;9.00;99.90;;;;;;5036604;28;20217;-78
2023/01/12 04:18:09;;;;;;;7.75;2.30;;;9.00;99.90;;;;;;5035730;28;20659;-81
2023/01/12 04:20:37;;;;;;;3.05;2.30;;;9.00;99.90;;;;;;5356625;22;20282;-79
2023/01/12 04:23:05;;;;;;;6.60;2.75;;;9.00;99.90;;;;;;5056048;28;20229;-79
2023/01/12 04:25:33;;;;;;;5.45;2.00;;;9.00;99.90;;;;;;5045272;28;20556;-79
2023/01/12 04:28:00;;;;;;;4.40;1.40;;;9.10;99.90;;;;;;5058515;28;20221;-78
2023/01/12 04:30:31;;;;;;;4.85;2.08;;;9.10;99.90;;;;;;5056252;28;20576;-80
2023/01/12 04:33:13;;;;;;;3.97;1.85;;;9.10;99.90;;;;;;5044362;28;20281;-78
2023/01/12 04:35:43;;;;;;;6.18;2.50;;;9.20;99.90;;;;;;5055012;28;20286;-79
2023/01/12 04:38:22;;;;;;;;;;;;;;;;;;;;;
2023/01/12 04:40:57;;;;;;;8.80;2.38;;;9.20;99.90;;;;;;5045883;28;20220;-78
2023/01/12 04:43:27;;;;;;;6.93;2.60;;;9.20;99.90;;;;;;5042680;28;20240;-78
2023/01/12 04:45:56;;;;;;;10.05;2.25;;;9.20;99.90;;;;;;5045759;28;20694;-78
2023/01/12 04:48:23;;;;;;;4.10;2.50;;;9.20;99.90;;;;;;5055249;28;20225;-78
2023/01/12 04:50:50;;;;;;;1.85;1.40;;;9.20;99.90;;;;;;5054118;28;20618;-78
2023/01/12 04:53:20;;;;;;;5.88;1.80;;;9.10;99.90;;;;;;5055318;28;20663;-79
2023/01/12 04:55:50;;;;;;;6.95;2.40;;;9.10;99.90;;;;;;5041675;28;20271;-80
2023/01/12 04:58:20;;;;;;;6.55;2.25;;;9.10;99.90;;;;;;5040649;28;20224;-79
2023/01/12 05:00:48;;;;;;;3.78;2.20;;;9.10;99.90;;;;;;5055073;28;20224;-80
2023/01/12 05:03:20;;;;;;;5.32;1.95;;;9.10;99.90;;;;;;5054736;28;20224;-80
2023/01/12 05:05:47;;;;;;;1.90;1.65;;;9.10;99.90;;;;;;5055170;28;20260;-79
2023/01/12 05:11:10;;;;;;;4.20;1.60;;;9.20;99.90;;;;;;5055135;28;20231;-80
2023/01/12 05:13:40;;;;;;;4.50;1.90;;;9.20;99.90;;;;;;5040096;28;20219;-77
2023/01/12 05:16:12;;;;;;;5.13;2.10;;;9.20;99.90;;;;;;5045047;28;20220;-78
2023/01/12 05:18:53;;;;;;;4.35;1.58;;;9.30;99.90;;;;;;5054557;28;20675;-78
2023/01/12 05:21:22;;;;;;;3.65;2.35;;;9.30;99.90;;;;;;5053386;28;20283;-78
2023/01/12 05:23:50;;;;;;;3.53;1.98;;;9.40;99.90;;;;;;5054499;28;20622;-78
2023/01/12 05:26:18;;;;;;;5.43;2.05;;;9.40;99.90;;;;;;5053620;28;20253;-78
2023/01/12 05:28:51;;;;;;;4.30;1.75;;;9.40;99.90;;;;;;5054040;28;20224;-77
2023/01/12 05:31:18;;;;;;;4.47;2.25;;;9.40;99.90;;;;;;5054008;28;20571;-79
2023/01/12 05:33:53;;;;;;;3.97;1.90;;;9.40;99.90;;;;;;5041345;28;20312;-78
2023/01/12 05:36:20;;;;;;;5.55;2.03;;;9.40;99.90;;;;;;5053949;28;20297;-78
2023/01/12 05:38:47;;;;;;;6.55;1.98;;;9.40;99.90;;;;;;5040696;28;20232;-78
2023/01/12 05:41:21;;;;;;;6.43;2.40;;;9.50;99.90;;;;;;5053252;28;20252;-79
2023/01/12 05:43:51;;;;;;;6.45;2.60;;;9.40;99.90;;;;;;5054567;28;20658;-79
2023/01/12 05:46:23;;;;;;;3.90;2.05;;;9.40;99.90;;;;;;5043365;28;20221;-79
2023/01/12 05:48:51;;;;;;;7.40;1.50;;;9.40;99.90;;;;;;5046014;28;20231;-78
2023/01/12 05:51:19;;;;;;;6.43;2.53;;;9.40;99.90;;;;;;5035115;28;20229;-78
2023/01/12 05:53:48;;;;;;;4.13;1.95;;;9.50;99.90;;;;;;5042332;28;20275;-78
2023/01/12 05:56:20;;;;;;;7.28;2.28;;;9.50;99.90;;;;;;5053533;28;20225;-79
2023/01/12 05:58:51;;;;;;;4.60;2.00;;;9.50;99.90;;;;;;5051160;28;20232;-79
2023/01/12 06:01:18;;;;;;;4.20;1.70;;;9.50;99.90;;;;;;5053931;28;20346;-78
2023/01/12 06:04:05;;;;;;;3.88;2.60;;;9.50;99.90;;;;;;5053045;28;20233;-79
2023/01/12 06:06:37;;;;;;;5.72;2.15;;;9.50;99.90;;;;;;5051071;28;20248;-79
2023/01/12 06:09:10;;;;;;;6.68;2.53;;;9.50;99.90;;;;;;5053599;28;20243;-79
2023/01/12 06:14:20;;;;;;;2.72;2.20;;;9.50;99.90;;;;;;5011166;28;20219;-79
2023/01/12 06:16:47;;;;;;;5.07;2.55;;;9.50;99.90;;;;;;5052324;28;20245;-79
2023/01/12 06:19:17;;;;;;;6.65;2.75;;;9.40;99.90;;;;;;5053422;28;20315;-78
2023/01/12 06:21:47;;;;;;;4.70;1.92;;;9.40;99.90;;;;;;5052905;28;20236;-78
2023/01/12 06:24:14;;;;;;;5.07;1.92;;;9.40;99.90;;;;;;5053421;28;20244;-78
2023/01/12 06:26:43;;;;;;;7.75;2.38;;;9.50;99.90;;;;;;5053116;28;20243;-78
2023/01/12 06:29:12;;;;;;;7.88;2.47;;;9.50;99.90;;;;;;5036330;28;20610;-78
2023/01/12 06:31:39;;;;;;;5.72;2.20;;;9.50;99.90;;;;;;5052036;28;20233;-78
2023/01/12 06:34:12;;;;;;;6.97;2.25;;;9.60;99.90;;;;;;5053059;28;20639;-79
2023/01/12 06:36:39;;;;;;;5.35;2.60;;;9.60;99.90;;;;;;5050178;28;20227;-78
2023/01/12 06:39:07;;;;;;;6.05;3.40;;;9.50;99.90;;;;;;5053127;28;20221;-79
2023/01/12 06:44:21;;;;;;;8.57;2.63;;;9.50;99.90;;;;;;5053323;28;20227;-79
2023/01/12 06:46:58;;;;;;;4.80;2.10;;;9.50;99.90;;;;;;5053602;28;20232;-79
2023/01/12 06:49:34;;;;;;;7.85;2.05;;;9.50;99.90;;;;;;5031611;28;20245;-80
2023/01/12 06:52:01;;;;;;;5.90;2.00;;;9.50;99.90;;;;;;5052914;28;20224;-79
2023/01/12 06:54:29;;;;;;;11.18;2.40;;;9.60;99.90;;;;;;5052735;28;20236;-79
2023/01/12 06:57:03;;;;;;;4.95;1.35;;;9.60;99.90;;;;;;5042881;28;20597;-80
2023/01/12 06:59:31;;;;;;;8.43;2.38;;;9.70;99.90;;;;;;5051210;28;20730;-80
2023/01/12 07:01:58;;;;;;;5.38;2.17;;;9.60;99.90;;;;;;5053689;28;20304;-81
2023/01/12 07:04:25;;;;;;;7.60;3.10;;;9.70;99.90;;;;;;5051478;28;20244;-80
2023/01/12 07:07:00;;;;;;;5.75;2.53;;;9.70;99.90;;;;;;5052248;28;20248;-81
2023/01/12 07:09:27;;;;;;;6.50;2.00;;;9.70;99.90;;;;;;5050055;28;20231;-80
2023/01/12 07:12:00;;;;;;;5.18;2.25;;;9.70;99.90;;;;;;5034746;28;20259;-80
2023/01/12 07:14:27;;;;;;;5.38;2.25;;;9.70;99.90;;;;;;5038854;28;20224;-80
2023/01/12 07:16:55;;;;;;;9.02;2.05;;;9.70;99.90;;;;;;5052586;28;20228;-80
2023/01/12 07:19:22;;;;;;;6.15;2.08;;;9.70;99.90;;;;;;5041258;28;20233;-80
2023/01/12 07:21:50;;;;;;;9.40;2.42;;;9.70;99.90;;;;;;5059537;28;20231;-78
2023/01/12 07:24:17;;;;;;;4.13;2.30;;;9.70;99.90;;;;;;5052845;28;20225;-80
2023/01/12 07:26:49;;;;;;;4.85;3.00;;;9.80;99.90;;;;;;5052432;28;20660;-79
2023/01/12 07:29:19;;;;;;;7.82;2.20;;;9.80;99.90;;;;;;5044492;28;20280;-79
2023/01/12 07:31:48;;;;;;;4.45;2.10;;;9.80;99.90;;;;;;5051740;28;20231;-79
2023/01/12 07:34:22;;;;;;;4.65;1.63;;;9.80;99.90;;;;;;5056593;28;20416;-80
2023/01/12 07:36:50;;;;;;;9.45;5.65;;;9.80;99.90;;;;;;5052142;28;20653;-80
2023/01/12 07:39:17;;;;;;;7.80;4.10;;;9.90;99.90;;;;;;5051910;28;20236;-80
2023/01/12 07:44:28;;;;;;;4.78;2.50;;;9.90;99.90;;;;;;5049673;28;20222;-79
2023/01/12 07:46:55;;;;;;;7.78;2.38;;;10.00;99.90;;;;;;5060844;28;22911;-79
2023/01/12 07:49:24;;;;;;;3.95;1.65;;;10.10;99.90;;;;;;5056172;28;20240;-79
2023/01/12 07:51:57;;;;;;;6.43;1.63;;;10.10;99.90;;;;;;5056698;28;20239;-80
2023/01/12 07:54:24;;;;;;;3.85;2.13;;;10.10;99.90;;;;;;5055791;28;20233;-79
2023/01/12 07:56:51;;;;;;;4.80;1.90;;;10.10;99.90;;;;;;5055720;28;20278;-79
2023/01/12 07:59:20;;;;;;;4.80;1.80;;;10.10;99.90;;;;;;5055730;28;20232;-79
2023/01/12 08:02:02;;;;;;;3.60;1.95;;;10.10;99.90;;;;;;5044916;28;20217;-80
2023/01/12 08:04:33;;;;;;;7.18;2.22;;;10.10;99.90;;;;;;5066961;28;20232;-79
2023/01/12 08:07:06;;;;;;;7.05;4.88;;;10.10;99.90;;;;;;5056493;28;20256;-80
2023/01/12 08:10:08;;;;;;;5.82;4.50;;;10.10;99.90;;;;;;5056641;28;20347;-80
2023/01/12 08:12:35;;;;;;;4.35;2.40;;;10.10;99.90;;;;;;5036491;28;20250;-81
2023/01/12 08:15:16;;;;;;;4.88;2.15;;;10.20;99.90;;;;;;5056592;28;20674;-79
2023/01/12 08:17:52;;;;;;;6.28;2.03;;;10.20;99.90;;;;;;5044526;28;20224;-80
2023/01/12 08:20:38;;;;;;;3.10;1.73;;;10.20;99.90;;;;;;5068400;28;20234;-79
2023/01/12 08:23:11;;;;;;;1.90;1.60;;;10.20;99.90;;;;;;5055691;28;20646;-80
2023/01/12 08:25:43;;;;;;;5.05;2.08;;;10.20;99.90;;;;;;5055637;28;20221;-79
2023/01/12 08:28:22;;;;;;;3.65;2.25;;;10.30;99.90;;;;;;5054974;28;20643;-79
2023/01/12 08:31:01;;;;;;;7.38;2.55;;;10.20;99.90;;;;;;5055073;28;20263;-79
2023/01/12 08:33:28;;;;;;;5.85;3.08;;;10.30;99.90;;;;;;5056479;28;20239;-80
2023/01/12 08:35:57;;;;;;;2.08;1.80;;;10.30;99.90;;;;;;5044602;28;20671;-81
2023/01/12 08:38:24;;;;;;;4.53;1.70;;;10.30;99.90;;;;;;5056019;28;20720;-81
2023/01/12 08:46:22;;;;;;;4.78;2.60;;;10.40;99.90;;;;;;5055925;28;20235;-79
2023/01/12 08:48:55;;;;;;;3.00;2.70;;;10.50;99.90;;;;;;5057254;28;20216;-81
2023/01/12 08:51:26;;;;;;;5.43;3.97;;;10.50;99.90;;;;;;5059447;28;20232;-80
2023/01/12 08:54:07;;;;;;;9.23;4.93;;;10.40;99.90;;;;;;5056888;28;20566;-80
2023/01/12 08:56:35;;;;;;;6.82;4.80;;;10.40;99.90;;;;;;5049794;28;20240;-81
2023/01/12 08:59:03;;;;;;;4.93;2.40;;;10.40;99.90;;;;;;5056422;28;20225;-81
2023/01/12 09:01:34;;;;;;;5.65;3.78;;;10.40;99.90;;;;;;5057849;28;20221;-80
2023/01/12 09:04:24;;;;;;;3.03;2.20;;;10.40;99.90;;;;;;5058614;28;20224;-81
2023/01/12 09:06:57;;;;;;;7.55;3.85;;;10.40;99.90;;;;;;5045647;28;20710;-81
2023/01/12 09:09:31;;;;;;;6.97;3.67;;;10.40;99.90;;;;;;5058898;28;20604;-79
2023/01/12 09:12:04;;;;;;;7.38;5.70;;;10.40;99.90;;;;;;5057507;28;20243;-79
2023/01/12 09:14:31;;;;;;;7.60;2.78;;;10.50;99.90;;;;;;5057939;28;20220;-80
2023/01/12 09:16:58;;;;;;;5.43;2.83;;;10.50;99.90;;;;;;5046978;28;20225;-79
2023/01/12 09:19:25;;;;;;;5.00;2.17;;;10.50;99.90;;;;;;5056424;28;20286;-79
2023/01/12 09:22:02;;;;;;;3.13;2.03;;;10.50;99.90;;;;;;5055481;28;20235;-79
2023/01/12 09:24:29;;;;;;;3.65;1.60;;;10.50;99.90;;;;;;5055498;28;20243;-79
2023/01/12 09:27:02;;;;;;;6.43;2.33;;;10.60;99.90;;;;;;5055963;28;20248;-79
2023/01/12 09:29:36;;;;;;;2.05;1.50;;;10.60;99.90;;;;;;5026862;28;20263;-79
2023/01/12 09:32:04;;;;;;;2.58;1.95;;;10.70;99.90;;;;;;5056206;28;20540;-78
2023/01/12 09:34:32;;;;;;;2.47;1.50;;;10.60;99.90;;;;;;5055496;28;20224;-78
2023/01/12 09:37:01;;;;;;;5.32;1.40;;;10.70;99.90;;;;;;5054966;28;20229;-79
2023/01/12 09:39:31;;;;;;;4.00;1.50;;;10.70;99.90;;;;;;5052677;28;20228;-78
2023/01/12 09:47:34;;;;;;;3.97;1.73;;;10.70;99.90;;;;;;5048816;28;20728;-79
2023/01/12 09:50:08;;;;;;;1.85;1.52;;;10.70;99.90;;;;;;5037232;28;20613;-80
2023/01/12 09:52:43;;;;;;;4.07;1.73;;;10.70;99.90;;;;;;5055670;28;20243;-80
2023/01/12 09:55:16;;;;;;;5.50;1.85;;;10.70;99.90;;;;;;5054667;28;20220;-78
2023/01/12 09:58:03;;;;;;;19.73;8.25;;;10.80;99.90;;;;;;5044952;28;20228;-79
2023/01/12 10:00:30;;;;;;;4.43;2.75;;;10.80;99.90;;;;;;5057884;28;20227;-79
2023/01/12 10:03:11;;;;;;;3.28;1.70;;;10.90;99.90;;;;;;5055153;28;20651;-79
2023/01/12 10:05:42;;;;;;;6.80;1.85;;;10.90;99.90;;;;;;5054003;28;20574;-79
2023/01/12 10:08:22;;;;;;;3.40;1.45;;;10.90;99.90;;;;;;5044416;28;20233;-78
2023/01/12 10:11:08;;;;;;;10.80;3.38;;;10.90;99.90;;;;;;5053572;28;20286;-79
2023/01/12 10:14:05;;;;;;;3.38;2.22;;;10.90;99.90;;;;;;5054823;28;20225;-80
2023/01/12 10:16:41;;;;;;;10.95;1.65;;;11.00;99.90;;;;;;5055861;28;20208;-78
2023/01/12 10:19:21;;;;;;;5.25;1.50;;;11.00;99.90;;;;;;5057390;28;20228;-79
2023/01/12 10:21:52;;;;;;;3.67;1.67;;;11.00;99.90;;;;;;5028151;28;20229;-79
2023/01/12 10:24:30;;;;;;;3.15;1.45;;;11.00;99.90;;;;;;5031811;28;20225;-79
2023/01/12 10:27:02;;;;;;;5.97;1.90;;;11.00;99.90;;;;;;5043218;28;20225;-78
2023/01/12 10:29:34;;;;;;;5.45;1.77;;;11.10;99.90;;;;;;5042062;28;20225;-79
2023/01/12 10:32:04;;;;;;;6.57;2.30;;;11.10;99.90;;;;;;5042058;28;20268;-79
2023/01/12 10:34:50;;;;;;;3.03;1.80;;;11.10;99.90;;;;;;5042894;28;20251;-79
2023/01/12 10:37:17;;;;;;;5.07;1.70;;;11.20;99.90;;;;;;5036862;28;20309;-79
2023/01/12 10:39:55;;;;;;;4.85;1.75;;;11.30;99.90;;;;;;5040785;28;20240;-78
2023/01/12 10:45:16;;;;;;;5.18;2.17;;;11.20;99.90;;;;;;5039972;28;20686;-78
2023/01/12 10:47:45;;;;;;;7.18;2.22;;;11.20;99.90;;;;;;5030169;28;20287;-79
2023/01/12 10:50:26;;;;;;;2.35;1.80;;;11.30;99.90;;;;;;5026967;28;20225;-79
2023/01/12 10:52:59;;;;;;;4.50;2.03;;;11.30;99.90;;;;;;5022469;28;20260;-79
2023/01/12 10:55:33;;;;;;;9.02;3.00;;;11.40;99.90;;;;;;5034933;28;20412;-78
2023/01/12 10:58:01;;;;;;;5.13;1.55;;;11.30;99.90;;;;;;5033470;28;20229;-78
2023/01/12 11:00:36;;;;;;;3.72;1.90;;;11.30;99.90;;;;;;5022793;28;20244;-78
2023/01/12 11:03:38;;;;;;;8.55;5.00;;;11.20;99.90;;;;;;5024302;28;20224;-78
2023/01/12 11:06:45;;;;;;;8.82;5.03;;;11.20;99.90;;;;;;4988524;28;20241;-79
2023/01/12 11:09:25;;;;;;;6.28;3.35;;;11.20;99.90;;;;;;5031780;28;20236;-79
2023/01/12 11:12:34;;;;;;;3.75;2.08;;;11.20;99.90;;;;;;5030793;28;20229;-78
2023/01/12 11:22:53;;;;;;;5.18;2.60;;;11.10;99.90;;;;;;4833999;29;20215;-80
2023/01/12 11:25:33;;;;;;;2.97;1.58;;;11.20;99.90;;;;;;4947774;28;20226;-80
2023/01/12 11:28:16;;;;;;;3.90;1.50;;;11.10;99.90;;;;;;4992053;28;20225;-78
2023/01/12 11:30:50;;;;;;;2.67;2.17;;;11.00;99.90;;;;;;5010671;28;20237;-80
2023/01/12 11:33:21;;;;;;;5.07;1.80;;;11.00;99.90;;;;;;5015648;28;20249;-79
2023/01/12 11:35:54;;;;;;;3.67;1.83;;;11.00;99.90;;;;;;5016237;28;20222;-77
2023/01/12 11:38:27;;;;;;;3.17;1.48;;;11.00;99.90;;;;;;5006282;28;20218;-77
2023/01/12 11:40:58;;;;;;;2.78;2.08;;;10.90;99.90;;;;;;5032329;28;20229;-79
2023/01/12 11:43:54;;;;;;;3.58;1.50;;;10.90;99.90;;;;;;5032023;28;20298;-79
2023/01/12 11:46:28;;;;;;;5.72;2.30;;;10.80;99.90;;;;;;5030732;28;20233;-78
2023/01/12 11:49:06;;;;;;;6.45;2.58;;;10.90;99.90;;;;;;5026325;28;20256;-78
2023/01/12 11:51:34;;;;;;;6.20;2.83;;;10.80;99.90;;;;;;5031359;28;20295;-77
2023/01/12 11:54:01;;;;;;;7.68;2.30;;;10.80;99.90;;;;;;5031925;28;20308;-78
2023/01/12 11:56:50;;;;;;;3.13;2.20;;;10.80;99.90;;;;;;5031962;28;20738;-77
2023/01/12 11:59:27;;;;;;;8.35;4.38;;;10.80;99.90;;;;;;5032148;28;20287;-80
2023/01/12 12:02:03;;;;;;;6.13;4.57;;;10.80;99.90;;;;;;5033204;28;20229;-79
2023/01/12 12:04:50;;;;;;;4.03;3.10;;;10.90;99.90;;;;;;5031588;28;20726;-80
2023/01/12 12:07:35;;;;;;;3.80;2.25;;;10.90;99.90;;;;;;5033166;28;20308;-79
2023/01/12 12:10:20;;;;;;;10.43;3.90;;;10.90;99.90;;;;;;5031112;28;20249;-79
2023/01/12 12:13:04;;;;;;;4.63;2.20;;;11.00;99.90;;;;;;5047404;28;20299;-79
2023/01/12 12:15:43;;;;;;;2.20;1.77;;;11.00;99.90;;;;;;5041912;28;20232;-79
2023/01/12 12:18:34;;;;;;;4.03;2.20;;;11.00;99.90;;;;;;5045441;28;20239;-79
2023/01/12 12:21:12;;;;;;;4.55;1.65;;;11.00;99.90;;;;;;5035258;28;20229;-77
2023/01/12 12:23:50;;;;;;;5.45;3.55;;;11.00;99.90;;;;;;5031631;28;20225;-78
2023/01/12 12:26:25;;;;;;;4.82;1.80;;;11.00;99.90;;;;;;5009939;28;20264;-77
2023/01/12 12:29:15;;;;;;;9.68;1.80;;;11.00;99.90;;;;;;5010880;28;20312;-77
2023/01/12 12:32:18;;;;;;;2.13;1.40;;;11.00;99.90;;;;;;5011850;28;20365;-77
2023/01/12 12:35:09;;;;;;;2.13;1.48;;;11.00;99.90;;;;;;4990622;28;20589;-79
2023/01/12 12:38:03;;;;;;;4.28;2.05;;;11.10;99.90;;;;;;5016776;28;20222;-78
2023/01/12 12:46:22;;;;;;;3.40;2.10;;;11.10;99.90;;;;;;5035928;28;20232;-77
2023/01/12 12:49:01;;;;;;;2.47;1.23;;;11.20;99.90;;;;;;5035639;28;20228;-77
2023/01/12 12:51:41;;;;;;;5.22;1.02;;;11.20;99.90;;;;;;5035686;28;20247;-80
2023/01/12 12:54:18;;;;;;;2.15;1.55;;;11.20;99.90;;;;;;5033356;28;20252;-79
2023/01/12 12:56:47;;;;;;;4.30;1.13;;;11.20;99.90;;;;;;5032641;28;20232;-78
2023/01/12 12:59:45;;;;;;;4.70;2.05;;;11.20;99.90;;;;;;5021253;28;20256;-78
2023/01/12 13:02:31;;;;;;;5.15;1.60;;;11.30;99.90;;;;;;5036237;28;20241;-78
2023/01/12 13:05:02;;;;;;;3.75;0.90;;;11.20;99.90;;;;;;5037012;28;20227;-79
2023/01/12 13:07:35;;;;;;;2.05;1.17;;;11.20;99.90;;;;;;5040564;28;20286;-76
2023/01/12 13:10:17;;;;;;;2.58;1.40;;;11.20;99.90;;;;;;5040652;28;20230;-77
2023/01/12 13:13:01;;;;;;;1.77;1.38;;;11.30;99.90;;;;;;5028771;28;20225;-77
2023/01/12 13:15:35;;;;;;;5.35;1.10;;;11.30;99.90;;;;;;5028546;28;20231;-76
2023/01/12 13:18:47;;;;;;;0.82;0.80;;;11.30;99.90;;;;;;5040144;28;20233;-77
2023/01/12 13:21:32;;;;;;;1.92;1.30;;;11.30;99.90;;;;;;5036066;28;20225;-79
2023/01/12 13:24:39;;;;;;;1.92;1.20;;;11.30;99.90;;;;;;5041015;28;20245;-78
2023/01/12 13:27:41;;;;;;;3.53;1.10;;;11.40;99.90;;;;;;5045641;28;20221;-78
2023/01/12 13:30:39;;;;;;;1.45;1.17;;;11.30;99.90;;;;;;5034964;28;20225;-79
2023/01/12 13:33:23;;;;;;;11.77;6.35;;;11.30;99.90;;;;;;5036497;28;20251;-79
2023/01/12 13:36:07;;;;;;;2.80;2.20;;;11.40;99.90;;;;;;5037445;28;20221;-78
2023/01/12 13:38:49;;;;;;;5.50;4.32;;;11.40;99.90;;;;;;5035706;28;20277;-78
2023/01/12 13:44:13;;;;;;;1.15;0.80;;;11.40;99.90;;;;;;5026529;28;20236;-81
2023/01/12 13:46:45;;;;;;;3.28;0.90;;;11.40;99.90;;;;;;5020195;28;20226;-81
2023/01/12 13:49:37;;;;;;;1.80;1.02;;;11.40;99.90;;;;;;5016227;28;20693;-80
2023/01/12 13:52:07;;;;;;;2.35;1.20;;;11.40;99.90;;;;;;5007119;28;20226;-80
2023/01/12 13:54:47;;;;;;;1.20;1.08;;;11.50;99.90;;;;;;5032938;28;20667;-80
2023/01/12 13:57:29;;;;;;;3.10;1.55;;;11.40;99.90;;;;;;5022995;28;20597;-80
2023/01/12 13:59:58;;;;;;;2.53;1.50;;;11.50;99.90;;;;;;5034008;28;20225;-79
2023/01/12 14:02:26;;;;;;;1.63;1.20;;;11.50;99.90;;;;;;5033094;28;20226;-79
2023/01/12 14:05:13;;;;;;;5.22;1.15;;;11.50;99.90;;;;;;5033390;28;20217;-79
2023/01/12 14:07:54;;;;;;;5.95;4.40;;;11.40;99.90;;;;;;5034746;28;20229;-78
2023/01/12 14:10:37;;;;;;;4.65;3.20;;;11.50;99.90;;;;;;5034886;28;20312;-77
2023/01/12 14:13:26;;;;;;;2.10;1.42;;;11.50;99.90;;;;;;5014689;28;20221;-77
2023/01/12 14:18:47;;;;;;;1.05;0.90;;;11.50;99.90;;;;;;5033542;28;20232;-79
2023/01/12 14:21:23;;;;;;;3.15;0.90;;;11.50;99.90;;;;;;5044817;28;20225;-77
2023/01/12 14:23:51;;;;;;;1.63;0.80;;;11.50;99.90;;;;;;5055056;28;20231;-78
2023/01/12 14:26:30;;;;;;;1.55;0.80;;;11.50;99.90;;;;;;5053292;28;20244;-79